createdAt,value
2023-04-03T00:02:11.061Z,5.50
2023-04-03T00:04:37.744Z,5.30
2023-04-03T00:07:04.393Z,5.30
2023-04-03T00:09:31.002Z,5.50
2023-04-03T00:11:57.656Z,5.40
2023-04-03T00:14:26.455Z,5.50
2023-04-03T00:16:53.039Z,5.40
2023-04-03T00:19:19.697Z,5.50
2023-04-03T00:21:46.551Z,5.60
2023-04-03T00:24:13.103Z,5.30
2023-04-03T00:26:39.651Z,5.40
2023-04-03T00:29:06.209Z,5.50
2023-04-03T00:31:32.858Z,5.40
2023-04-03T00:33:59.489Z,5.40
2023-04-03T00:36:26.162Z,5.50
2023-04-03T00:38:52.739Z,5.30
2023-04-03T00:41:19.241Z,5.50
2023-04-03T00:43:45.925Z,5.50
2023-04-03T00:46:12.537Z,5.60
2023-04-03T00:48:43.677Z,5.70
2023-04-03T00:51:23.290Z,5.60
2023-04-03T00:53:49.859Z,5.50
2023-04-03T00:56:18.619Z,5.60
2023-04-03T00:58:49.586Z,5.60
2023-04-03T01:01:19.538Z,5.30
2023-04-03T01:03:46.138Z,5.20
2023-04-03T01:06:14.297Z,5.20
2023-04-03T01:08:42.339Z,5.20
2023-04-03T01:11:08.914Z,5.30
2023-04-03T01:13:35.756Z,5.20
2023-04-03T01:16:05.543Z,5.30
2023-04-03T01:18:33.039Z,5.20
2023-04-03T01:21:09.456Z,5.20
2023-04-03T01:23:41.663Z,5.10
2023-04-03T01:26:08.297Z,5.10
2023-04-03T01:28:38.587Z,4.90
2023-04-03T01:31:26.479Z,5.20
2023-04-03T01:33:53.179Z,5.00
2023-04-03T01:36:21.638Z,5.10
2023-04-03T01:38:49.060Z,5.10
2023-04-03T01:41:18.020Z,5.00
2023-04-03T01:43:44.747Z,4.90
2023-04-03T01:46:11.495Z,5.00
2023-04-03T01:48:38.224Z,5.00
2023-04-03T01:51:05.018Z,4.90
2023-04-03T01:53:31.532Z,4.90
2023-04-03T01:55:58.108Z,5.00
2023-04-03T01:58:26.806Z,5.00
2023-04-03T02:00:54.139Z,5.00
2023-04-03T02:03:21.147Z,4.70
2023-04-03T02:05:48.138Z,4.80
2023-04-03T02:08:15.282Z,4.70
2023-04-03T02:10:41.825Z,4.60
2023-04-03T02:13:08.462Z,4.50
2023-04-03T02:15:35.032Z,4.60
2023-04-03T02:18:07.516Z,4.70
2023-04-03T02:20:34.737Z,4.60
2023-04-03T02:23:01.600Z,4.50
2023-04-03T02:25:28.403Z,4.70
2023-04-03T02:27:54.982Z,4.50
2023-04-03T02:30:21.514Z,4.40
2023-04-03T02:32:48.073Z,4.60
2023-04-03T02:35:14.702Z,4.40
2023-04-03T02:37:41.559Z,4.60
2023-04-03T02:40:09.475Z,4.40
2023-04-03T02:42:38.436Z,4.50
2023-04-03T02:45:08.171Z,4.30
2023-04-03T02:47:34.829Z,4.20
2023-04-03T02:50:01.430Z,4.20
2023-04-03T02:52:28.006Z,4.10
2023-04-03T02:54:54.543Z,4.10
2023-04-03T02:57:21.285Z,4.00
2023-04-03T02:59:52.557Z,3.90
2023-04-03T03:02:19.175Z,4.00
2023-04-03T03:04:45.761Z,3.90
2023-04-03T03:07:14.832Z,3.80
2023-04-03T03:09:41.521Z,3.70
2023-04-03T03:12:08.100Z,3.80
2023-04-03T03:14:34.639Z,3.50
2023-04-03T03:17:01.251Z,3.70
2023-04-03T03:19:27.828Z,3.50
2023-04-03T03:21:54.457Z,3.60
2023-04-03T03:24:21.173Z,3.60
2023-04-03T03:26:47.697Z,3.60
2023-04-03T03:29:14.259Z,3.40
2023-04-03T03:31:40.849Z,3.50
2023-04-03T03:34:09.617Z,3.50
2023-04-03T03:36:36.337Z,3.30
2023-04-03T03:39:03.126Z,3.30
2023-04-03T03:41:29.714Z,3.40
2023-04-03T03:43:56.294Z,3.20
2023-04-03T03:46:22.880Z,3.30
2023-04-03T03:48:49.445Z,3.20
2023-04-03T03:51:16.227Z,3.30
2023-04-03T03:53:45.181Z,3.00
2023-04-03T03:56:11.736Z,3.10
2023-04-03T03:58:38.366Z,2.80
2023-04-03T04:01:06.474Z,2.90
2023-04-03T04:03:35.699Z,2.90
2023-04-03T04:06:02.320Z,2.80
2023-04-03T04:08:28.883Z,2.80
2023-04-03T04:10:55.444Z,2.80
2023-04-03T04:13:24.634Z,2.70
2023-04-03T04:15:56.122Z,2.90
2023-04-03T04:18:24.793Z,3.10
2023-04-03T04:20:51.352Z,3.00
2023-04-03T04:23:18.946Z,2.70
2023-04-03T04:25:48.990Z,2.70
2023-04-03T04:28:16.047Z,2.90
2023-04-03T04:30:42.674Z,2.50
2023-04-03T04:33:09.324Z,2.50
2023-04-03T04:35:36.340Z,2.60
2023-04-03T04:38:03.542Z,2.80
2023-04-03T04:40:30.216Z,2.60
2023-04-03T04:42:57.110Z,2.50
2023-04-03T04:45:23.646Z,2.60
2023-04-03T04:47:52.464Z,2.60
2023-04-03T04:50:19.459Z,2.40
2023-04-03T04:52:46.033Z,2.50
2023-04-03T04:55:12.582Z,2.40
2023-04-03T04:57:41.399Z,2.50
2023-04-03T05:00:11.198Z,2.50
2023-04-03T05:02:37.852Z,2.30
2023-04-03T05:05:05.360Z,2.10
2023-04-03T05:07:32.196Z,2.20
2023-04-03T05:09:58.760Z,2.10
2023-04-03T05:12:25.627Z,2.20
2023-04-03T05:14:52.164Z,1.90
2023-04-03T05:17:18.760Z,2.10
2023-04-03T05:19:47.884Z,2.00
2023-04-03T05:22:17.124Z,1.90
2023-04-03T05:24:43.655Z,2.00
2023-04-03T05:27:10.343Z,2.00
2023-04-03T05:29:36.966Z,1.80
2023-04-03T05:32:03.686Z,1.80
2023-04-03T05:34:32.785Z,1.60
2023-04-03T05:37:00.032Z,1.80
2023-04-03T05:39:26.682Z,1.90
2023-04-03T05:41:53.236Z,1.70
2023-04-03T05:44:19.878Z,1.60
2023-04-03T05:46:49.061Z,1.70
2023-04-03T05:49:15.666Z,1.80
2023-04-03T05:51:42.381Z,1.70
2023-04-03T05:54:35.388Z,1.80
2023-04-03T05:57:02.024Z,2.00
2023-04-03T05:59:31.089Z,1.70
2023-04-03T06:02:00.542Z,1.80
2023-04-03T06:04:29.652Z,2.10
2023-04-03T06:06:57.412Z,2.20
2023-04-03T06:09:26.042Z,2.00
2023-04-03T06:11:53.653Z,1.80
2023-04-03T06:14:20.343Z,1.90
2023-04-03T06:16:47.073Z,1.80
2023-04-03T06:19:13.852Z,2.00
2023-04-03T06:21:40.560Z,2.00
2023-04-03T06:24:10.062Z,1.90
2023-04-03T06:26:36.593Z,1.80
2023-04-03T06:29:03.527Z,2.20
2023-04-03T06:31:33.645Z,2.20
2023-04-03T06:34:02.593Z,2.30
2023-04-03T06:36:29.818Z,2.20
2023-04-03T06:38:56.528Z,2.30
2023-04-03T06:41:26.613Z,2.30
2023-04-03T06:43:53.226Z,2.20
2023-04-03T06:46:21.557Z,1.90
2023-04-03T06:48:48.302Z,2.20
2023-04-03T06:51:25.200Z,2.20
2023-04-03T06:53:53.145Z,2.30
2023-04-03T06:56:19.721Z,1.90
2023-04-03T06:58:47.142Z,2.00
2023-04-03T07:01:18.730Z,2.50
2023-04-03T07:03:45.719Z,2.30
2023-04-03T07:06:13.039Z,2.60
2023-04-03T07:08:40.013Z,2.70
2023-04-03T07:11:07.028Z,2.40
2023-04-03T07:13:33.737Z,2.40
2023-04-03T07:16:04.588Z,3.40
2023-04-03T07:18:33.702Z,5.20
2023-04-03T07:21:00.521Z,5.70
2023-04-03T07:23:27.494Z,7.40
2023-04-03T07:25:54.524Z,4.90
2023-04-03T07:28:23.511Z,4.10
2023-04-03T07:30:57.101Z,6.00
2023-04-03T07:33:23.872Z,5.80
2023-04-03T07:35:50.933Z,4.50
2023-04-03T07:38:17.901Z,4.30
2023-04-03T07:40:50.669Z,4.60
2023-04-03T07:43:21.070Z,4.20
2023-04-03T07:45:50.684Z,4.20
2023-04-03T07:48:26.860Z,3.80
2023-04-03T07:50:55.984Z,3.90
2023-04-03T07:53:22.542Z,3.80
2023-04-03T07:55:49.999Z,3.70
2023-04-03T07:58:18.186Z,3.80
2023-04-03T08:00:45.098Z,3.80
2023-04-03T08:03:14.265Z,3.20
2023-04-03T08:05:42.102Z,3.30
2023-04-03T08:08:09.201Z,3.50
2023-04-03T08:10:36.158Z,3.00
2023-04-03T08:13:05.727Z,3.20
2023-04-03T08:15:32.497Z,3.30
2023-04-03T08:17:59.938Z,3.30
2023-04-03T08:20:26.707Z,3.00
2023-04-03T08:22:53.323Z,3.20
2023-04-03T08:25:19.958Z,3.40
2023-04-03T08:27:49.129Z,3.20
2023-04-03T08:30:15.777Z,3.30
2023-04-03T08:32:45.847Z,3.60
2023-04-03T08:35:12.768Z,4.00
2023-04-03T08:37:39.746Z,3.70
2023-04-03T08:40:12.036Z,3.80
2023-04-03T08:42:39.201Z,4.30
2023-04-03T08:45:06.550Z,3.90
2023-04-03T08:47:41.711Z,4.00
2023-04-03T08:50:12.749Z,4.00
2023-04-03T08:52:42.780Z,4.30
2023-04-03T08:55:14.888Z,4.50
2023-04-03T08:57:45.348Z,4.10
2023-04-03T09:00:17.174Z,3.90
2023-04-03T09:02:48.181Z,4.00
2023-04-03T09:05:19.599Z,3.80
2023-04-03T09:07:53.088Z,3.80
2023-04-03T09:10:24.195Z,3.70
2023-04-03T09:13:02.334Z,4.10
2023-04-03T09:15:38.498Z,3.70
2023-04-03T09:18:24.317Z,3.90
2023-04-03T09:20:51.781Z,3.90
2023-04-03T09:23:18.396Z,3.70
2023-04-03T09:25:45.082Z,3.70
2023-04-03T09:28:11.716Z,4.10
2023-04-03T09:30:39.363Z,4.00
2023-04-03T09:33:08.005Z,4.30
2023-04-03T09:35:47.149Z,4.60
2023-04-03T09:38:14.849Z,4.60
2023-04-03T09:40:41.470Z,4.60
2023-04-03T09:43:20.992Z,5.00
2023-04-03T09:45:48.309Z,5.00
2023-04-03T09:48:16.189Z,4.80
2023-04-03T09:50:56.348Z,4.40
2023-04-03T09:53:28.998Z,4.70
2023-04-03T09:55:55.853Z,4.90
2023-04-03T09:58:36.072Z,4.70
2023-04-03T10:01:21.908Z,5.00
2023-04-03T10:04:03.108Z,5.30
2023-04-03T10:06:31.803Z,5.10
2023-04-03T10:09:05.386Z,4.90
2023-04-03T10:11:32.084Z,5.00
2023-04-03T10:14:00.737Z,5.40
2023-04-03T10:16:48.996Z,5.90
2023-04-03T10:19:33.409Z,6.00
2023-04-03T10:22:04.896Z,5.80
2023-04-03T10:24:37.360Z,5.90
2023-04-03T10:27:08.618Z,5.60
2023-04-03T10:29:44.290Z,5.60
2023-04-03T10:32:17.602Z,6.10
2023-04-03T10:34:49.113Z,6.40
2023-04-03T10:37:29.517Z,6.20
2023-04-03T10:39:58.991Z,6.10
2023-04-03T10:42:34.992Z,6.50
2023-04-03T10:45:22.870Z,6.60
2023-04-03T10:48:01.370Z,6.90
2023-04-03T10:50:28.029Z,6.50
2023-04-03T10:53:12.921Z,6.90
2023-04-03T10:55:44.057Z,7.00
2023-04-03T10:58:19.285Z,6.80
2023-04-03T11:00:50.579Z,7.10
2023-04-03T11:03:37.818Z,6.80
2023-04-03T11:06:07.844Z,7.20
2023-04-03T11:08:36.282Z,6.70
2023-04-03T11:11:20.971Z,7.00
2023-04-03T11:13:53.786Z,6.90
2023-04-03T11:16:24.107Z,7.00
2023-04-03T11:18:53.551Z,6.80
2023-04-03T11:21:28.461Z,6.50
2023-04-03T11:24:00.451Z,6.30
2023-04-03T11:26:29.420Z,5.90
2023-04-03T11:28:59.456Z,6.30
2023-04-03T11:31:32.251Z,6.70
2023-04-03T11:34:11.338Z,6.60
2023-04-03T11:36:50.060Z,6.80
2023-04-03T11:39:22.187Z,6.80
2023-04-03T11:41:49.114Z,6.70
2023-04-03T11:44:34.798Z,7.00
2023-04-03T11:47:04.372Z,7.10
2023-04-03T11:49:49.436Z,7.30
2023-04-03T11:52:36.082Z,7.20
2023-04-03T11:55:25.049Z,7.20
2023-04-03T11:58:03.489Z,7.00
2023-04-03T12:00:48.122Z,7.40
2023-04-03T12:03:23.841Z,7.20
2023-04-03T12:05:51.381Z,7.10
2023-04-03T12:08:32.643Z,7.30
2023-04-03T12:11:14.727Z,7.50
2023-04-03T12:13:53.518Z,6.90
2023-04-03T12:16:20.092Z,7.20
2023-04-03T12:18:49.599Z,7.30
2023-04-03T12:21:22.458Z,7.50
2023-04-03T12:23:58.024Z,7.30
2023-04-03T12:26:42.101Z,7.60
2023-04-03T12:29:40.414Z,7.80
2023-04-03T12:32:26.442Z,7.80
2023-04-03T12:35:16.433Z,7.80
2023-04-03T12:38:05.415Z,7.90
2023-04-03T12:40:43.991Z,7.90
2023-04-03T12:43:22.943Z,7.90
2023-04-03T12:45:52.934Z,8.00
2023-04-03T12:48:30.366Z,8.20
2023-04-03T12:50:58.368Z,8.30
2023-04-03T12:53:43.789Z,8.00
2023-04-03T12:56:25.098Z,8.00
2023-04-03T12:58:58.246Z,7.70
2023-04-03T13:01:25.694Z,7.70
2023-04-03T13:03:56.653Z,7.90
2023-04-03T13:06:35.420Z,8.20
2023-04-03T13:09:02.081Z,8.30
2023-04-03T13:11:35.009Z,8.10
2023-04-03T13:14:04.242Z,8.30
2023-04-03T13:16:33.035Z,7.70
2023-04-03T13:18:59.940Z,7.90
2023-04-03T13:21:31.416Z,7.50
2023-04-03T13:24:13.985Z,7.80
2023-04-03T13:26:42.984Z,8.10
2023-04-03T13:29:24.286Z,8.20
2023-04-03T13:31:57.774Z,8.00
2023-04-03T13:34:26.874Z,8.10
2023-04-03T13:36:57.656Z,8.30
2023-04-03T13:39:26.844Z,8.00
2023-04-03T13:42:02.601Z,7.80
2023-04-03T13:44:29.217Z,8.10
2023-04-03T13:46:57.155Z,7.90
2023-04-03T13:49:30.332Z,8.40
2023-04-03T13:52:07.169Z,8.20
2023-04-03T13:54:34.905Z,7.60
2023-04-03T13:57:02.152Z,7.90
2023-04-03T13:59:31.246Z,8.30
2023-04-03T14:02:04.006Z,8.60
2023-04-03T14:04:30.573Z,7.90
2023-04-03T14:06:57.516Z,8.10
2023-04-03T14:14:20.320Z,8.30
2023-04-03T14:16:49.172Z,8.30
2023-04-03T14:19:18.733Z,8.40
2023-04-03T14:21:45.304Z,7.70
2023-04-03T14:24:12.424Z,7.70
2023-04-03T14:26:42.005Z,7.60
2023-04-03T14:29:11.409Z,8.10
2023-04-03T14:31:38.298Z,8.50
2023-04-03T14:34:07.873Z,8.40
2023-04-03T14:36:37.998Z,8.10
2023-04-03T14:39:08.282Z,8.20
2023-04-03T14:41:37.110Z,8.40
2023-04-03T14:44:03.740Z,7.90
2023-04-03T14:46:42.926Z,7.80
2023-04-03T14:49:17.155Z,8.00
2023-04-03T14:51:43.743Z,7.90
2023-04-03T14:54:17.679Z,7.90
2023-04-03T14:56:45.561Z,7.90
2023-04-03T14:59:15.494Z,8.30
2023-04-03T15:01:42.374Z,8.60
2023-04-03T15:04:16.455Z,8.50
2023-04-03T15:06:43.626Z,8.50
2023-04-03T15:09:26.537Z,8.40
2023-04-03T15:11:53.848Z,7.90
2023-04-03T15:14:35.279Z,7.80
2023-04-03T15:17:07.543Z,7.50
2023-04-03T15:19:37.592Z,7.70
2023-04-03T15:22:04.456Z,7.80
2023-04-03T15:24:31.078Z,8.10
2023-04-03T15:26:57.658Z,7.80
2023-04-03T15:29:24.243Z,7.90
2023-04-03T15:31:53.701Z,7.90
2023-04-03T15:34:22.468Z,8.20
2023-04-03T15:36:49.913Z,8.10
2023-04-03T15:39:17.339Z,8.30
2023-04-03T15:41:46.420Z,8.20
2023-04-03T15:44:18.390Z,8.40
2023-04-03T15:46:52.339Z,8.00
2023-04-03T15:49:20.584Z,8.30
2023-04-03T15:51:47.180Z,8.10
2023-04-03T15:54:13.902Z,7.70
2023-04-03T15:56:40.469Z,7.90
2023-04-03T15:59:07.080Z,7.80
2023-04-03T16:01:33.976Z,7.80
2023-04-03T16:04:00.878Z,7.90
2023-04-03T16:06:30.267Z,7.70
2023-04-03T16:08:59.846Z,7.70
2023-04-03T16:11:28.977Z,7.60
2023-04-03T16:13:55.547Z,7.60
2023-04-03T16:16:22.710Z,7.60
2023-04-03T16:18:49.404Z,7.60
2023-04-03T16:21:17.254Z,7.20
2023-04-03T16:23:44.289Z,7.30
2023-04-03T16:26:10.972Z,7.60
2023-04-03T16:28:37.853Z,7.50
2023-04-03T16:31:06.082Z,7.40
2023-04-03T16:33:32.780Z,7.40
2023-04-03T16:35:59.530Z,7.40
2023-04-03T16:38:28.642Z,7.40
2023-04-03T16:40:57.892Z,7.50
2023-04-03T16:43:24.531Z,7.40
2023-04-03T16:45:51.112Z,7.40
2023-04-03T16:48:21.855Z,7.50
2023-04-03T16:50:49.870Z,7.40
2023-04-03T16:53:16.486Z,7.60
2023-04-03T16:55:43.178Z,7.40
2023-04-03T16:58:11.968Z,7.10
2023-04-03T17:00:38.670Z,7.00
2023-04-03T17:03:05.387Z,7.00
2023-04-03T17:05:34.597Z,6.80
2023-04-03T17:08:01.997Z,6.70
2023-04-03T17:10:28.978Z,6.80
2023-04-03T17:12:55.542Z,6.80
2023-04-03T17:15:22.180Z,6.80
2023-04-03T17:17:49.811Z,6.60
2023-04-03T17:20:16.551Z,6.80
2023-04-03T17:22:45.477Z,6.80
2023-04-03T17:25:15.670Z,6.60
2023-04-03T17:27:42.313Z,6.60
2023-04-03T17:30:09.419Z,6.50
2023-04-03T17:32:36.340Z,6.30
2023-04-03T17:35:05.412Z,6.50
2023-04-03T17:37:34.226Z,6.30
2023-04-03T17:40:01.003Z,6.40
2023-04-03T17:42:27.719Z,6.50
2023-04-03T17:44:54.442Z,6.10
2023-04-03T17:47:23.251Z,6.30
2023-04-03T17:49:51.678Z,6.20
2023-04-03T17:52:24.085Z,6.10
2023-04-03T17:54:50.872Z,6.00
2023-04-03T17:57:17.536Z,6.10
2023-04-03T17:59:44.161Z,5.80
2023-04-03T18:02:13.142Z,5.80
2023-04-03T18:04:39.752Z,5.80
2023-04-03T18:07:09.824Z,5.60
2023-04-03T18:09:40.844Z,5.80
2023-04-03T18:12:10.492Z,5.70
2023-04-03T18:14:38.288Z,5.70
2023-04-03T18:17:04.920Z,5.60
2023-04-03T18:19:31.642Z,5.80
2023-04-03T18:22:01.212Z,5.70
2023-04-03T18:24:27.981Z,5.50
2023-04-03T18:26:57.725Z,5.70
2023-04-03T18:29:24.720Z,5.60
2023-04-03T18:31:52.302Z,5.40
2023-04-03T18:34:19.215Z,5.40
2023-04-03T18:36:49.101Z,5.50
2023-04-03T18:39:15.733Z,5.50
2023-04-03T18:41:42.460Z,5.40
2023-04-03T18:44:11.994Z,5.30
2023-04-03T18:46:38.991Z,5.10
2023-04-03T18:49:05.915Z,5.20
2023-04-03T18:51:32.593Z,5.00
2023-04-03T18:53:59.336Z,5.10
2023-04-03T18:56:26.373Z,5.00
2023-04-03T18:58:55.377Z,5.00
2023-04-03T19:01:22.122Z,5.00
2023-04-03T19:03:48.902Z,4.80
2023-04-03T19:06:15.768Z,4.70
2023-04-03T19:08:45.567Z,4.70
2023-04-03T19:11:12.161Z,4.80
2023-04-03T19:13:47.120Z,4.90
2023-04-03T19:16:28.197Z,4.80
2023-04-03T19:18:54.786Z,4.80
2023-04-03T19:21:23.699Z,4.60
2023-04-03T19:23:52.689Z,4.50
2023-04-03T19:26:20.246Z,4.70
2023-04-03T19:28:48.867Z,4.30
2023-04-03T19:31:16.642Z,4.40
2023-04-03T19:33:46.167Z,4.50
2023-04-03T19:36:16.013Z,4.70
2023-04-03T19:38:44.829Z,4.60
2023-04-03T19:41:13.108Z,4.80
2023-04-03T19:43:39.942Z,4.60
2023-04-03T19:46:07.263Z,4.60
2023-04-03T19:48:35.366Z,4.40
2023-04-03T19:51:05.857Z,4.30
2023-04-03T19:53:32.488Z,4.60
2023-04-03T19:55:59.149Z,4.60
2023-04-03T19:58:30.007Z,4.70
2023-04-03T20:00:57.728Z,4.70
2023-04-03T20:03:24.537Z,4.70
2023-04-03T20:05:51.780Z,4.80
2023-04-03T20:08:18.881Z,4.90
2023-04-03T20:10:45.734Z,4.70
2023-04-03T20:13:15.227Z,5.00
2023-04-03T20:15:42.830Z,4.70
2023-04-03T20:18:10.846Z,4.30
2023-04-03T20:20:42.192Z,4.10
2023-04-03T20:23:11.148Z,4.20
2023-04-03T20:25:54.021Z,4.30
2023-04-03T20:28:27.941Z,4.50
2023-04-03T20:30:57.001Z,4.50
2023-04-03T20:33:26.268Z,4.40
2023-04-03T20:35:54.264Z,4.40
2023-04-03T20:38:22.984Z,4.40
2023-04-03T20:40:49.983Z,4.40
2023-04-03T20:43:19.417Z,3.90
2023-04-03T20:45:46.085Z,3.80
2023-04-03T20:48:13.270Z,3.90
2023-04-03T20:50:41.258Z,4.00
2023-04-03T20:53:08.291Z,3.60
2023-04-03T20:55:35.139Z,3.80
2023-04-03T20:58:02.216Z,3.90
2023-04-03T21:00:32.233Z,3.60
2023-04-03T21:03:01.504Z,3.90
2023-04-03T21:05:30.592Z,3.70
2023-04-03T21:08:17.075Z,3.60
2023-04-03T21:11:03.037Z,3.40
2023-04-03T21:13:48.657Z,3.80
2023-04-03T21:16:15.481Z,3.50
2023-04-03T21:18:42.411Z,3.70
2023-04-03T21:21:17.264Z,3.10
2023-04-03T21:23:47.419Z,3.40
2023-04-03T21:26:14.227Z,3.30
2023-04-03T21:28:42.575Z,3.40
2023-04-03T21:31:11.510Z,3.40
2023-04-03T21:33:40.850Z,3.40
2023-04-03T21:36:08.127Z,3.20
2023-04-03T21:38:35.703Z,3.20
2023-04-03T21:41:02.388Z,3.40
2023-04-03T21:43:31.198Z,3.40
2023-04-03T21:45:58.764Z,3.40
2023-04-03T21:48:25.852Z,3.60
2023-04-03T21:50:53.650Z,3.40
2023-04-03T21:53:21.336Z,3.40
2023-04-03T21:55:54.728Z,3.60
2023-04-03T21:58:21.486Z,3.40
2023-04-03T22:00:48.164Z,3.60
2023-04-03T22:03:23.475Z,3.20
2023-04-03T22:05:50.495Z,3.30
2023-04-03T22:08:17.896Z,3.00
2023-04-03T22:10:45.015Z,2.90
2023-04-03T22:13:11.645Z,3.10
2023-04-03T22:15:42.811Z,2.80
2023-04-03T22:18:12.081Z,2.80
2023-04-03T22:20:38.976Z,2.70
2023-04-03T22:23:11.144Z,3.00
2023-04-03T22:25:37.757Z,3.10
2023-04-03T22:28:04.312Z,3.10
2023-04-03T22:30:31.452Z,3.30
2023-04-03T22:32:58.085Z,3.20
2023-04-03T22:35:24.768Z,3.40
2023-04-03T22:37:51.620Z,3.40
2023-04-03T22:40:18.390Z,3.00
2023-04-03T22:42:48.166Z,3.20
2023-04-03T22:45:15.245Z,2.90
2023-04-03T22:47:44.276Z,2.90
2023-04-03T22:50:11.178Z,3.10
2023-04-03T22:52:40.231Z,3.30
2023-04-03T22:55:19.048Z,3.30
2023-04-03T22:57:49.265Z,2.80
2023-04-03T23:00:20.605Z,2.90
2023-04-03T23:02:47.417Z,2.80
2023-04-03T23:05:14.045Z,2.70
2023-04-03T23:07:40.580Z,2.70
2023-04-03T23:10:07.406Z,3.10
2023-04-03T23:12:40.190Z,2.90
2023-04-03T23:15:07.494Z,2.80
2023-04-03T23:17:37.999Z,2.60
2023-04-03T23:20:07.852Z,2.60
2023-04-03T23:22:34.403Z,2.70
2023-04-03T23:25:01.457Z,2.40
2023-04-03T23:27:30.228Z,2.50
2023-04-03T23:29:56.948Z,2.30
2023-04-03T23:32:26.030Z,2.40
2023-04-03T23:34:52.811Z,2.40
2023-04-03T23:37:19.418Z,2.40
2023-04-03T23:39:46.330Z,2.40
2023-04-03T23:42:12.936Z,2.20
2023-04-03T23:44:39.544Z,2.00
2023-04-03T23:47:06.187Z,2.10
2023-04-03T23:49:33.036Z,2.20
2023-04-03T23:51:59.677Z,2.00
2023-04-03T23:54:31.455Z,2.00
2023-04-03T23:57:00.922Z,1.90
2023-04-03T23:59:27.763Z,1.90
